TimePST,TemperatureF,Dew PointF,Humidity,Sea Level PressureIn,VisibilityMPH,Wind Direction,Wind SpeedMPH,Gust SpeedMPH,PrecipitationIn,Events,Conditions,WindDirDegrees,DateUTC
12:53 AM,54.0,12.9,20,30.05,10.0,SE,5.8,-,N/A,,Clear,130,2013-01-22 08:53:00
1:53 AM,51.1,16.0,25,30.05,10.0,East,3.5,-,N/A,,Clear,90,2013-01-22 09:53:00
2:53 AM,53.1,12.0,20,30.05,10.0,SSE,6.9,-,N/A,,Clear,160,2013-01-22 10:53:00
4:53 AM,57.0,9.0,15,30.05,10.0,SE,6.9,-,N/A,,Clear,140,2013-01-22 12:53:00
5:53 AM,52.0,12.0,20,30.06,10.0,ESE,8.1,-,N/A,,Clear,120,2013-01-22 13:53:00
6:53 AM,51.1,12.0,21,30.07,8.0,East,9.2,-,N/A,,Clear,100,2013-01-22 14:53:00
7:53 AM,62.1,15.1,16,30.07,10.0,Calm,Calm,-,N/A,,Clear,0,2013-01-22 15:53:00
8:53 AM,68.0,12.9,12,30.08,10.0,SE,10.4,-,N/A,,Clear,140,2013-01-22 16:53:00
9:53 AM,73.9,12.0,9,30.08,10.0,SE,12.7,27.6,N/A,,Clear,140,2013-01-22 17:53:00
10:53 AM,78.1,14.0,9,30.06,10.0,SE,8.1,-,N/A,,Clear,140,2013-01-22 18:53:00
11:53 AM,81.0,14.0,8,30.02,10.0,South,3.5,-,N/A,,Clear,180,2013-01-22 19:53:00
12:53 PM,81.0,19.0,10,30.00,10.0,WNW,8.1,-,N/A,,Clear,290,2013-01-22 20:53:00
1:53 PM,73.9,21.9,14,30.01,10.0,West,11.5,-,N/A,,Clear,260,2013-01-22 21:53:00
2:53 PM,73.0,19.0,13,30.02,10.0,NNW,3.5,-,N/A,,Clear,330,2013-01-22 22:53:00
3:53 PM,70.0,17.1,13,30.04,10.0,West,6.9,-,N/A,,Clear,270,2013-01-22 23:53:00
4:53 PM,68.0,17.1,14,30.04,9.0,Calm,Calm,-,N/A,,Clear,0,2013-01-23 00:53:00
5:53 PM,66.0,15.1,14,30.05,10.0,Calm,Calm,-,N/A,,Clear,0,2013-01-23 01:53:00
6:53 PM,63.0,21.0,20,30.06,10.0,Calm,Calm,-,N/A,,Clear,0,2013-01-23 02:53:00
7:53 PM,60.1,24.1,25,30.06,10.0,ESE,4.6,-,N/A,,Clear,110,2013-01-23 03:53:00
8:53 PM,55.9,24.1,29,30.06,8.0,SE,6.9,-,N/A,,Clear,130,2013-01-23 04:53:00
9:53 PM,57.0,23.0,27,30.06,9.0,SSE,8.1,-,N/A,,Clear,160,2013-01-23 05:53:00
10:53 PM,59.0,23.0,25,30.06,10.0,SE,6.9,-,N/A,,Clear,130,2013-01-23 06:53:00
11:53 PM,59.0,23.0,25,30.04,10.0,SE,5.8,-,N/A,,Clear,130,2013-01-23 07:53:00